< < Back
Terminal Aerodrome Forecast


Current Version              Previous Versions:   1  2  3  4  5  6  7  8  9  

Terminal Aerodrome Forecast

782
FTUS42 KMLB 181500 AAB
TAFMCO
TAF AMD
KMCO 181500Z 1815/1912 24005KT P6SM SCT025 BKN250
     FM181800 28009KT P6SM VCTS SCT030CB SCT060 BKN250
     FM190000 20003KT P6SM SCT040 BKN100 OVC250
     FM190600 00000KT P6SM SCT100 BKN250=

Latest METAR

693
SAUS70 KWBC 181700 RRJ
MTRMCO
METAR KMCO 181653Z 26008G17KT 10SM SCT030 SCT250 31/22 A2999 RMK AO2
SLP154 T03060217


USA.gov is the U.S. government's official web portal to all federal, state and local government web resources and services.